KMGG

Maple Lake Municipal-Bill Mavencamp Sr Field Airport

Maple Lake, Minnesota, USA
METAR KMGG 161755Z AUTO 00000KT 10SM CLR M11/M16 A3034 RMK AO2 T11111158 11111 21161
Observed Flight Rules
Jan-16 @ 17:55 UTC (32 minutes ago) Visual Flight Rules
Visibility Clouds
10 miles
  • Clear skies
Temperatures Readings
Current -11°C / 12°F
Dewpoint -16°C / 3°F
Humidity 67%
Altimeter 30.34" Hg
Pressure 1027.42 hPa
Elevation 313
METAR KMGG 161755Z AUTO 00000KT 10SM CLR M11/M16 A3034 RMK AO2 T11111158 11111 21161
Observed Flight Rules
Jan-16 @ 17:55 UTC
(32 minutes ago)
VFR
Clouds
  • Clear skies
Temperature Dewpoint
-11°C / 12°F -16°C / 3°F
Humidity Altimeter Pressure
67% 30.34" Hg 1027.42 hPa